Time;durP1;ratioP1;P1;durP2;ratioP2;P2;SDS_P1;SDS_P2;PMS_P1;PMS_P2;Temp;Humidity;BMP_temperature;BMP_pressure;BME280_temperature;BME280_humidity;BME280_pressure;Samples;Min_cycle;Max_cycle;Signal;HPM_P1;HPM_P2
2024/02/12 05:07:32;;;;;;;0.30;0.30;;;8.10;99.90;;;;;;5021425;22;20231;-69
2024/02/12 05:09:59;;;;;;;0.30;0.30;;;8.10;99.90;;;;;;4976179;28;20594;-67
2024/02/12 05:12:25;;;;;;;0.35;0.35;;;8.00;99.90;;;;;;4958922;28;20199;-66
2024/02/12 05:14:50;;;;;;;0.30;0.30;;;8.00;99.90;;;;;;4976014;28;20199;-67
2024/02/12 05:17:23;;;;;;;0.30;0.30;;;8.00;99.90;;;;;;4976243;28;20188;-68
2024/02/12 05:22:33;;;;;;;0.30;0.30;;;7.90;99.90;;;;;;4976511;28;20284;-68
2024/02/12 05:24:59;;;;;;;0.30;0.30;;;7.80;99.90;;;;;;4975668;28;20275;-67
2024/02/12 05:27:26;;;;;;;0.30;0.30;;;7.80;99.90;;;;;;4976236;28;20798;-67
2024/02/12 05:29:52;;;;;;;0.30;0.30;;;7.70;99.90;;;;;;4976060;28;20176;-66
2024/02/12 05:32:20;;;;;;;0.40;0.40;;;7.70;99.90;;;;;;4976337;28;20177;-67
2024/02/12 05:34:49;;;;;;;0.30;0.30;;;7.70;99.90;;;;;;4976724;28;20531;-68
2024/02/12 05:37:15;;;;;;;0.30;0.30;;;7.60;99.90;;;;;;4975834;28;20195;-68
2024/02/12 05:39:42;;;;;;;0.30;0.30;;;7.70;99.90;;;;;;4976013;28;20661;-68
2024/02/12 05:42:07;;;;;;;0.40;0.40;;;7.70;99.90;;;;;;4958268;28;20269;-67
2024/02/12 05:44:36;;;;;;;0.30;0.30;;;7.70;99.90;;;;;;4975440;28;20175;-67
2024/02/12 05:47:02;;;;;;;0.30;0.30;;;7.80;99.90;;;;;;4975932;28;20188;-67
2024/02/12 05:49:29;;;;;;;0.30;0.30;;;7.80;99.90;;;;;;4977176;28;20172;-66
2024/02/12 05:51:55;;;;;;;0.30;0.30;;;7.90;99.90;;;;;;4959460;28;20291;-69
2024/02/12 05:54:20;;;;;;;0.30;0.30;;;7.90;99.90;;;;;;4976701;28;20180;-67
2024/02/12 05:56:47;;;;;;;0.33;0.33;;;8.00;99.90;;;;;;4976391;28;20431;-67
2024/02/12 05:59:12;;;;;;;0.30;0.30;;;8.00;99.90;;;;;;4976765;28;20455;-66
2024/02/12 06:01:38;;;;;;;0.30;0.30;;;8.00;99.90;;;;;;4958845;28;20223;-68
2024/02/12 06:04:04;;;;;;;0.40;0.40;;;8.00;99.90;;;;;;4975536;28;20554;-67
2024/02/12 06:06:30;;;;;;;0.30;0.30;;;8.10;99.90;;;;;;4974494;28;21029;-68
2024/02/12 06:08:55;;;;;;;0.43;0.43;;;8.10;99.90;;;;;;4974968;28;20172;-67
2024/02/12 06:11:21;;;;;;;0.30;0.30;;;8.10;99.90;;;;;;4974766;28;20196;-67
2024/02/12 06:13:47;;;;;;;0.30;0.30;;;8.10;99.90;;;;;;4958790;28;20177;-69
2024/02/12 06:16:13;;;;;;;0.30;0.30;;;8.20;99.90;;;;;;4974722;28;20199;-62
2024/02/12 06:18:39;;;;;;;0.30;0.30;;;8.20;99.90;;;;;;4974926;28;20200;-62
2024/02/12 06:21:05;;;;;;;0.30;0.30;;;8.20;99.90;;;;;;4957768;28;20172;-67
2024/02/12 06:23:31;;;;;;;0.30;0.30;;;8.20;99.90;;;;;;4974883;28;20404;-68
2024/02/12 06:25:58;;;;;;;0.30;0.30;;;8.30;99.90;;;;;;4974645;28;20191;-67
2024/02/12 06:28:24;;;;;;;0.30;0.30;;;8.30;99.90;;;;;;4974925;28;20408;-70
2024/02/12 06:30:49;;;;;;;0.30;0.30;;;8.30;99.90;;;;;;4974838;28;20182;-69
2024/02/12 06:33:15;;;;;;;0.40;0.40;;;8.30;99.90;;;;;;4974606;28;20199;-68
2024/02/12 06:35:41;;;;;;;0.33;0.33;;;8.30;99.90;;;;;;4974445;28;20527;-69
2024/02/12 06:38:07;;;;;;;0.30;0.30;;;8.30;99.90;;;;;;4956999;28;20200;-69
2024/02/12 06:40:34;;;;;;;0.30;0.30;;;8.30;99.90;;;;;;4957366;28;20227;-68
2024/02/12 06:43:02;;;;;;;0.37;0.37;;;8.40;99.90;;;;;;4974675;28;20164;-69
2024/02/12 06:45:28;;;;;;;0.30;0.30;;;8.40;99.90;;;;;;4974116;28;20435;-69
2024/02/12 06:47:55;;;;;;;0.30;0.30;;;8.40;99.90;;;;;;4974258;28;20173;-67
2024/02/12 06:50:20;;;;;;;0.30;0.30;;;8.30;99.90;;;;;;4974421;28;20172;-67
2024/02/12 06:52:47;;;;;;;0.40;0.40;;;8.30;99.90;;;;;;4974527;28;20183;-67
2024/02/12 06:55:15;;;;;;;0.30;0.30;;;8.30;99.90;;;;;;4974268;28;20172;-68
2024/02/12 06:57:42;;;;;;;0.30;0.30;;;8.30;99.90;;;;;;4974760;28;20192;-72
2024/02/12 07:00:08;;;;;;;0.30;0.30;;;8.40;99.90;;;;;;4974992;28;20622;-69
2024/02/12 07:02:35;;;;;;;1.05;0.85;;;8.30;99.90;;;;;;4974630;28;20179;-69
2024/02/12 07:05:03;;;;;;;0.30;0.30;;;8.30;99.90;;;;;;4956857;28;20195;-68
2024/02/12 07:07:32;;;;;;;0.30;0.30;;;8.30;99.90;;;;;;4975141;28;20192;-69
2024/02/12 07:09:58;;;;;;;0.30;0.30;;;8.20;99.90;;;;;;4976828;28;20258;-70
2024/02/12 07:12:23;;;;;;;0.30;0.30;;;8.20;99.90;;;;;;4977797;28;20164;-70
2024/02/12 07:14:51;;;;;;;0.30;0.30;;;8.30;99.90;;;;;;4977295;28;20199;-71
2024/02/12 07:17:17;;;;;;;0.30;0.30;;;8.20;99.90;;;;;;4977649;28;20194;-69
2024/02/12 07:19:49;;;;;;;0.30;0.30;;;8.20;99.90;;;;;;4978354;28;20182;-69
2024/02/12 07:22:16;;;;;;;0.40;0.40;;;8.30;99.90;;;;;;4976566;28;20180;-70
2024/02/12 07:24:48;;;;;;;0.30;0.30;;;8.30;99.90;;;;;;4979815;28;20184;-68
2024/02/12 07:27:20;;;;;;;0.30;0.30;;;8.30;99.90;;;;;;4977820;28;20219;-72
2024/02/12 07:29:46;;;;;;;0.40;0.40;;;8.30;99.90;;;;;;4977804;28;20642;-70
2024/02/12 07:32:14;;;;;;;0.30;0.30;;;8.30;99.90;;;;;;4977323;28;20214;-66
2024/02/12 07:34:41;;;;;;;0.30;0.30;;;8.30;99.90;;;;;;4978265;28;20172;-71
2024/02/12 07:37:07;;;;;;;0.30;0.30;;;8.30;99.90;;;;;;4979209;28;20192;-70
2024/02/12 07:39:33;;;;;;;0.30;0.30;;;8.40;99.90;;;;;;4978573;28;20280;-70
2024/02/12 07:41:59;;;;;;;0.30;0.30;;;8.40;99.90;;;;;;4978004;28;20252;-70
2024/02/12 07:44:28;;;;;;;0.30;0.30;;;8.40;99.90;;;;;;4977714;28;20164;-70
2024/02/12 07:46:54;;;;;;;0.30;0.30;;;8.40;99.90;;;;;;4977639;28;20196;-69
2024/02/12 07:49:20;;;;;;;1.80;0.60;;;8.50;99.90;;;;;;4977524;28;20190;-66
2024/02/12 07:51:50;;;;;;;0.35;0.35;;;8.50;99.90;;;;;;4976391;28;20735;-69
2024/02/12 07:54:16;;;;;;;0.30;0.30;;;8.60;99.90;;;;;;4977856;28;20181;-67
2024/02/12 07:56:42;;;;;;;0.30;0.30;;;8.60;99.90;;;;;;4977348;28;20197;-69
2024/02/12 07:59:07;;;;;;;0.30;0.30;;;8.60;99.90;;;;;;4977446;28;20545;-67
2024/02/12 08:01:33;;;;;;;0.30;0.30;;;8.70;99.90;;;;;;4976914;28;20204;-67
2024/02/12 08:03:59;;;;;;;0.30;0.30;;;8.70;99.90;;;;;;4976979;28;20602;-67
2024/02/12 08:06:24;;;;;;;0.30;0.30;;;8.80;99.90;;;;;;4976559;28;20199;-69
2024/02/12 08:08:50;;;;;;;0.30;0.30;;;8.80;99.90;;;;;;4977431;28;20230;-68
2024/02/12 08:11:17;;;;;;;0.30;0.30;;;8.80;99.90;;;;;;4959750;28;20212;-69
2024/02/12 08:13:45;;;;;;;0.30;0.30;;;8.90;99.90;;;;;;4981569;28;20203;-71
2024/02/12 08:16:11;;;;;;;0.30;0.30;;;8.90;99.90;;;;;;4985826;28;20189;-69
2024/02/12 08:18:37;;;;;;;0.30;0.30;;;9.00;99.90;;;;;;4987658;28;20207;-70
2024/02/12 08:21:03;;;;;;;0.30;0.30;;;9.00;99.90;;;;;;4978886;28;20461;-69
2024/02/12 08:23:29;;;;;;;0.30;0.30;;;9.10;99.90;;;;;;4975924;28;20168;-68
2024/02/12 08:25:54;;;;;;;0.30;0.30;;;9.20;99.90;;;;;;4975883;28;20552;-70
2024/02/12 08:28:23;;;;;;;0.30;0.30;;;9.20;99.90;;;;;;4976635;28;20177;-68
2024/02/12 08:30:49;;;;;;;0.30;0.30;;;9.20;99.90;;;;;;4976396;28;20243;-70
2024/02/12 08:33:14;;;;;;;0.30;0.30;;;9.20;99.90;;;;;;4975460;28;20186;-69
2024/02/12 08:35:40;;;;;;;0.30;0.30;;;9.30;99.90;;;;;;4977913;28;20943;-70
2024/02/12 08:38:09;;;;;;;0.30;0.30;;;9.30;99.90;;;;;;4976061;28;20660;-68
2024/02/12 08:40:36;;;;;;;0.30;0.30;;;9.30;99.90;;;;;;4976116;28;20412;-69
2024/02/12 08:43:02;;;;;;;0.30;0.30;;;9.40;99.90;;;;;;4975974;28;20404;-65
2024/02/12 08:45:28;;;;;;;0.30;0.20;;;9.50;99.90;;;;;;4975646;28;20459;-70
2024/02/12 08:47:53;;;;;;;0.30;0.20;;;9.60;99.90;;;;;;4975351;28;20480;-68
2024/02/12 08:50:19;;;;;;;0.30;0.20;;;9.60;99.90;;;;;;4976140;28;20170;-64
2024/02/12 08:52:45;;;;;;;0.30;0.30;;;9.70;99.90;;;;;;4958453;28;20178;-69
2024/02/12 08:55:13;;;;;;;0.30;0.30;;;9.70;99.90;;;;;;4975723;28;20174;-69
2024/02/12 08:57:41;;;;;;;0.30;0.30;;;9.80;99.90;;;;;;4975714;28;20210;-69
2024/02/12 09:00:12;;;;;;;0.30;0.30;;;9.80;99.90;;;;;;4975387;28;20441;-66
2024/02/12 09:02:37;;;;;;;0.30;0.30;;;9.80;99.90;;;;;;4975780;28;20418;-67
2024/02/12 09:05:10;;;;;;;0.30;0.30;;;9.80;99.90;;;;;;4974937;28;20862;-65
2024/02/12 09:07:42;;;;;;;0.30;0.30;;;9.80;99.90;;;;;;4974971;28;20182;-67
2024/02/12 09:10:09;;;;;;;0.30;0.30;;;9.90;99.90;;;;;;4975793;28;20413;-66
2024/02/12 09:12:38;;;;;;;0.30;0.20;;;9.90;99.90;;;;;;4975285;28;20418;-68
2024/02/12 09:15:16;;;;;;;0.30;0.30;;;10.10;99.90;;;;;;4975060;28;20417;-68
2024/02/12 09:17:42;;;;;;;0.30;0.30;;;10.10;99.90;;;;;;4975568;28;22325;-72
2024/02/12 09:20:10;;;;;;;0.80;0.80;;;10.30;99.90;;;;;;4975669;28;20459;-72
2024/02/12 09:22:38;;;;;;;0.30;0.30;;;10.30;99.90;;;;;;4965993;28;20431;-69
2024/02/12 09:25:04;;;;;;;0.30;0.30;;;10.50;99.90;;;;;;4974982;28;20922;-66
2024/02/12 09:27:30;;;;;;;0.30;0.30;;;10.50;99.90;;;;;;4984398;28;20408;-65
2024/02/12 09:29:57;;;;;;;0.30;0.30;;;10.60;99.90;;;;;;4975339;28;20488;-68
2024/02/12 09:32:23;;;;;;;0.30;0.30;;;10.60;99.90;;;;;;4975070;28;20430;-69
2024/02/12 09:34:49;;;;;;;0.30;0.30;;;10.70;99.90;;;;;;4974407;28;20589;-69
2024/02/12 09:37:18;;;;;;;0.30;0.30;;;10.90;99.90;;;;;;4975498;28;20441;-68
2024/02/12 09:39:44;;;;;;;0.30;0.30;;;11.20;99.90;;;;;;4958604;28;20203;-68
2024/02/12 09:42:11;;;;;;;0.30;0.20;;;11.30;99.90;;;;;;4974646;28;20460;-68
2024/02/12 09:44:42;;;;;;;0.30;0.30;;;11.40;99.90;;;;;;4973850;28;20455;-69
2024/02/12 09:47:11;;;;;;;0.30;0.30;;;11.40;99.90;;;;;;4975159;28;20446;-70
2024/02/12 09:49:36;;;;;;;0.30;0.20;;;11.50;99.90;;;;;;4979375;28;20804;-65
2024/02/12 09:52:04;;;;;;;0.30;0.30;;;11.40;99.90;;;;;;4982239;28;20443;-71
2024/02/12 09:54:30;;;;;;;0.30;0.20;;;11.50;99.90;;;;;;4976968;28;20180;-68
2024/02/12 09:56:58;;;;;;;0.30;0.20;;;11.50;99.90;;;;;;4974487;28;20447;-68
2024/02/12 09:59:24;;;;;;;0.30;0.20;;;11.50;99.90;;;;;;4974425;28;20556;-67
2024/02/12 10:01:49;;;;;;;0.30;0.30;;;11.50;99.90;;;;;;4974403;28;20451;-70
2024/02/12 10:04:15;;;;;;;0.30;0.30;;;11.50;99.90;;;;;;4974080;28;20627;-67
2024/02/12 10:06:41;;;;;;;0.30;0.30;;;11.50;99.90;;;;;;4974371;28;20219;-70
2024/02/12 10:09:08;;;;;;;0.30;0.30;;;11.30;99.90;;;;;;4974391;28;20188;-69
2024/02/12 10:11:34;;;;;;;0.30;0.27;;;11.30;99.90;;;;;;4974593;28;20176;-69
2024/02/12 10:14:04;;;;;;;0.30;0.30;;;11.30;99.90;;;;;;4974307;28;20409;-65
2024/02/12 10:16:33;;;;;;;0.70;0.70;;;11.30;99.90;;;;;;4987083;28;20848;-68
2024/02/12 10:18:59;;;;;;;0.30;0.30;;;11.20;99.90;;;;;;4974972;28;20466;-68
2024/02/12 10:21:25;;;;;;;0.30;0.30;;;11.10;99.90;;;;;;4974897;28;20425;-70
2024/02/12 10:23:51;;;;;;;0.30;0.20;;;11.20;99.90;;;;;;4973950;28;20455;-67
2024/02/12 10:26:23;;;;;;;0.30;0.30;;;11.20;99.90;;;;;;4973703;28;20837;-68
2024/02/12 10:28:53;;;;;;;0.30;0.20;;;11.10;99.90;;;;;;4966442;28;20503;-67
2024/02/12 10:31:21;;;;;;;0.30;0.30;;;11.10;99.90;;;;;;4974336;28;20824;-68
2024/02/12 10:33:48;;;;;;;0.30;0.30;;;11.10;99.90;;;;;;4973663;28;20422;-65
2024/02/12 10:36:16;;;;;;;0.30;0.30;;;11.20;99.90;;;;;;4974081;28;20435;-68
2024/02/12 10:38:43;;;;;;;0.60;0.60;;;11.40;99.90;;;;;;4973233;28;20470;-67
2024/02/12 10:41:20;;;;;;;0.30;0.30;;;11.70;99.90;;;;;;4973764;28;20422;-71
2024/02/12 10:43:51;;;;;;;0.30;0.30;;;12.00;99.90;;;;;;4974156;28;20848;-64
2024/02/12 10:46:16;;;;;;;0.40;0.40;;;12.60;99.90;;;;;;4983015;28;20774;-70
2024/02/12 10:48:46;;;;;;;0.40;0.40;;;13.20;99.90;;;;;;4973775;28;20402;-65
2024/02/12 10:51:15;;;;;;;0.30;0.20;;;13.70;99.90;;;;;;4974115;28;20191;-67
2024/02/12 10:53:41;;;;;;;0.30;0.20;;;14.00;99.90;;;;;;4973340;28;20394;-66
2024/02/12 10:56:08;;;;;;;0.30;0.30;;;14.30;99.90;;;;;;4973192;28;20768;-69
2024/02/12 10:58:35;;;;;;;0.30;0.30;;;14.40;99.90;;;;;;4980484;28;20437;-68
2024/02/12 11:01:01;;;;;;;0.50;0.50;;;14.40;99.90;;;;;;4973162;28;20419;-66
2024/02/12 11:03:37;;;;;;;1.10;0.77;;;14.40;99.90;;;;;;4973500;28;20422;-68
2024/02/12 11:06:10;;;;;;;0.30;0.30;;;14.30;99.90;;;;;;4973429;28;20425;-71
2024/02/12 11:08:43;;;;;;;0.30;0.20;;;14.10;99.90;;;;;;4973725;28;20766;-69
2024/02/12 11:11:18;;;;;;;0.30;0.20;;;14.00;99.90;;;;;;4972958;28;20470;-66
2024/02/12 11:13:45;;;;;;;0.30;0.20;;;13.70;99.90;;;;;;4980665;28;20407;-69
2024/02/12 11:16:18;;;;;;;0.30;0.20;;;13.40;99.90;;;;;;4972745;28;20445;-69
2024/02/12 11:18:47;;;;;;;0.30;0.30;;;12.90;99.90;;;;;;4973277;28;20602;-67
2024/02/12 11:21:19;;;;;;;0.30;0.20;;;12.60;99.90;;;;;;4971897;28;20397;-70
2024/02/12 11:23:48;;;;;;;0.30;0.30;;;12.30;99.90;;;;;;4971683;28;20411;-68
2024/02/12 11:26:14;;;;;;;0.30;0.20;;;12.00;99.90;;;;;;4971495;28;20432;-69
2024/02/12 11:28:48;;;;;;;0.30;0.30;;;11.70;99.90;;;;;;4971712;28;20489;-67
2024/02/12 11:31:15;;;;;;;0.30;0.20;;;11.60;99.90;;;;;;4972114;28;20408;-69
2024/02/12 11:33:42;;;;;;;0.30;0.30;;;11.60;99.90;;;;;;4964806;28;20845;-68
2024/02/12 11:36:09;;;;;;;0.30;0.30;;;11.50;99.90;;;;;;4973551;28;20442;-69
2024/02/12 11:38:48;;;;;;;0.30;0.30;;;11.50;99.90;;;;;;4973535;28;20473;-69
2024/02/12 11:41:15;;;;;;;0.30;0.30;;;11.50;99.90;;;;;;4956345;28;20438;-66
2024/02/12 11:43:42;;;;;;;0.30;0.30;;;11.50;99.90;;;;;;4956328;28;20894;-68
2024/02/12 11:46:13;;;;;;;0.30;0.30;;;11.60;99.90;;;;;;4973413;28;20435;-68
2024/02/12 11:48:38;;;;;;;0.30;0.30;;;11.60;99.90;;;;;;4956545;28;20433;-69
2024/02/12 11:51:04;;;;;;;0.30;0.30;;;11.60;99.90;;;;;;4973750;28;20465;-69
2024/02/12 11:53:30;;;;;;;0.30;0.30;;;11.50;99.90;;;;;;4973452;28;20437;-70
2024/02/12 11:55:59;;;;;;;0.60;0.60;;;11.50;99.90;;;;;;4973488;28;20199;-66
2024/02/12 11:58:26;;;;;;;0.30;0.30;;;11.40;99.90;;;;;;4973579;28;20570;-67
2024/02/12 12:00:52;;;;;;;0.30;0.30;;;11.40;99.90;;;;;;4974060;28;20760;-69
2024/02/12 12:03:19;;;;;;;0.30;0.20;;;11.40;99.90;;;;;;4973183;28;20419;-68
2024/02/12 12:05:46;;;;;;;0.30;0.30;;;11.40;99.90;;;;;;4973068;28;20798;-66
2024/02/12 12:08:12;;;;;;;0.30;0.30;;;11.40;99.90;;;;;;4973998;28;20426;-69
2024/02/12 12:10:38;;;;;;;0.80;0.57;;;11.40;99.90;;;;;;4976301;28;20757;-69
2024/02/12 12:13:03;;;;;;;0.30;0.30;;;11.30;99.90;;;;;;4976903;28;20180;-67
2024/02/12 12:15:29;;;;;;;0.30;0.30;;;11.30;99.90;;;;;;4975810;28;20234;-69
2024/02/12 12:17:57;;;;;;;0.30;0.30;;;11.40;99.90;;;;;;4976464;28;20244;-67
2024/02/12 12:20:25;;;;;;;0.30;0.30;;;11.40;99.90;;;;;;4974409;28;20176;-68
2024/02/12 12:22:51;;;;;;;0.33;0.30;;;11.30;99.90;;;;;;4963625;28;20856;-67
2024/02/12 12:25:18;;;;;;;0.30;0.30;;;11.30;99.90;;;;;;4976539;28;20446;-67
2024/02/12 12:27:44;;;;;;;0.30;0.30;;;11.20;99.90;;;;;;4976684;28;20450;-69
2024/02/12 12:30:18;;;;;;;0.30;0.20;;;11.20;99.90;;;;;;4976374;28;20815;-69
2024/02/12 12:32:49;;;;;;;0.30;0.30;;;11.20;99.90;;;;;;4976284;28;20483;-68
2024/02/12 12:35:15;;;;;;;0.30;0.27;;;11.20;99.90;;;;;;4975905;28;20422;-65
2024/02/12 12:37:41;;;;;;;0.30;0.20;;;11.20;99.90;;;;;;4976381;28;20411;-69
2024/02/12 12:40:10;;;;;;;0.30;0.20;;;11.20;99.90;;;;;;4976635;28;20426;-65
2024/02/12 12:42:39;;;;;;;0.40;0.40;;;11.20;99.90;;;;;;4957354;28;20426;-68
2024/02/12 12:45:08;;;;;;;0.30;0.30;;;11.30;99.90;;;;;;4958374;28;20928;-69
2024/02/12 12:47:37;;;;;;;0.30;0.30;;;11.40;99.90;;;;;;4976834;28;20425;-68
2024/02/12 12:50:05;;;;;;;0.30;0.30;;;11.50;99.90;;;;;;4975858;28;20430;-69
2024/02/12 12:52:31;;;;;;;0.30;0.30;;;11.60;99.90;;;;;;4976578;28;20441;-66
2024/02/12 12:54:57;;;;;;;0.30;0.20;;;11.80;99.90;;;;;;4976244;28;20393;-67
2024/02/12 12:57:23;;;;;;;0.30;0.30;;;11.90;99.90;;;;;;4975985;28;20181;-68
2024/02/12 12:59:48;;;;;;;0.30;0.30;;;11.90;99.90;;;;;;4975688;28;20470;-68
2024/02/12 13:02:14;;;;;;;0.30;0.30;;;11.90;99.90;;;;;;4976451;28;20423;-69
2024/02/12 13:04:39;;;;;;;0.30;0.20;;;11.90;99.90;;;;;;4975810;28;20179;-67
2024/02/12 13:07:06;;;;;;;0.30;0.23;;;12.00;99.90;;;;;;4975638;28;20590;-68
2024/02/12 13:09:32;;;;;;;0.30;0.20;;;12.00;99.90;;;;;;4975496;28;20192;-68
2024/02/12 13:11:59;;;;;;;0.30;0.20;;;12.00;99.90;;;;;;4975948;28;20473;-66
2024/02/12 13:14:24;;;;;;;0.30;0.30;;;12.10;99.90;;;;;;4974786;28;20497;-67
2024/02/12 13:16:51;;;;;;;0.30;0.30;;;12.10;99.90;;;;;;4974866;28;20832;-66
2024/02/12 13:19:17;;;;;;;0.30;0.20;;;12.10;99.90;;;;;;4958814;28;20212;-65
2024/02/12 13:21:42;;;;;;;0.30;0.20;;;12.10;99.90;;;;;;4975483;28;20418;-68
2024/02/12 13:24:10;;;;;;;0.30;0.30;;;12.10;99.90;;;;;;4975038;28;20652;-67
2024/02/12 13:26:39;;;;;;;0.30;0.30;;;12.10;99.90;;;;;;4973858;28;20192;-65
2024/02/12 13:29:06;;;;;;;0.30;0.30;;;12.00;99.90;;;;;;4975148;28;20415;-70
2024/02/12 13:31:35;;;;;;;0.30;0.30;;;12.00;99.90;;;;;;4974646;28;20420;-67
2024/02/12 13:34:04;;;;;;;0.30;0.30;;;12.10;99.90;;;;;;4978497;28;20415;-67
2024/02/12 13:36:30;;;;;;;0.30;0.20;;;12.10;99.90;;;;;;4991832;28;20446;-67
2024/02/12 13:38:56;;;;;;;0.30;0.30;;;12.10;99.90;;;;;;4974515;28;20467;-67
2024/02/12 13:41:22;;;;;;;0.30;0.30;;;12.20;99.90;;;;;;4974813;28;20422;-70
2024/02/12 13:43:48;;;;;;;0.30;0.20;;;12.10;99.90;;;;;;4974408;28;20412;-68
2024/02/12 13:46:14;;;;;;;0.30;0.30;;;12.20;99.90;;;;;;4976707;28;20234;-69
2024/02/12 13:48:42;;;;;;;0.30;0.20;;;12.10;99.90;;;;;;4975205;28;20404;-66
2024/02/12 13:51:08;;;;;;;0.30;0.30;;;12.10;99.90;;;;;;4975064;28;20468;-68
2024/02/12 13:53:35;;;;;;;0.30;0.20;;;12.00;99.90;;;;;;4975473;28;20420;-70
2024/02/12 13:56:01;;;;;;;0.30;0.30;;;12.00;99.90;;;;;;4974871;28;20410;-69
2024/02/12 13:58:27;;;;;;;0.30;0.30;;;11.90;99.90;;;;;;4994563;28;20454;-67
2024/02/12 14:00:53;;;;;;;0.30;0.30;;;11.80;99.90;;;;;;4977207;28;20429;-70
2024/02/12 14:03:19;;;;;;;0.30;0.27;;;11.70;99.90;;;;;;4957710;28;20169;-67
2024/02/12 14:05:45;;;;;;;0.30;0.30;;;11.70;99.90;;;;;;4963973;28;20853;-67
2024/02/12 14:08:11;;;;;;;0.30;0.20;;;11.60;99.90;;;;;;4985222;28;20206;-65
2024/02/12 14:10:37;;;;;;;0.30;0.30;;;11.60;99.90;;;;;;4984245;28;20407;-69
2024/02/12 14:13:03;;;;;;;0.30;0.30;;;11.50;99.90;;;;;;4985963;28;20390;-66
2024/02/12 14:15:30;;;;;;;0.30;0.30;;;11.50;99.90;;;;;;4981642;28;20462;-67
2024/02/12 14:17:56;;;;;;;0.30;0.30;;;11.40;99.90;;;;;;4983565;28;21054;-68
2024/02/12 14:20:22;;;;;;;0.30;0.30;;;11.30;99.90;;;;;;4983554;28;20737;-69
2024/02/12 14:22:48;;;;;;;0.30;0.30;;;11.30;99.90;;;;;;4988840;28;20419;-68
2024/02/12 14:25:14;;;;;;;0.30;0.20;;;11.20;99.90;;;;;;4982572;28;20414;-65
2024/02/12 14:27:40;;;;;;;0.30;0.30;;;11.20;99.90;;;;;;4983988;28;20452;-68
2024/02/12 14:30:17;;;;;;;0.30;0.30;;;11.20;99.90;;;;;;4982661;28;20457;-68
2024/02/12 14:32:44;;;;;;;0.30;0.30;;;11.20;99.90;;;;;;4980281;28;20787;-70
2024/02/12 14:35:14;;;;;;;0.30;0.30;;;11.10;99.90;;;;;;4993546;28;20855;-68
2024/02/12 14:37:40;;;;;;;0.30;0.30;;;11.10;99.90;;;;;;4976764;28;20396;-68
2024/02/12 14:40:06;;;;;;;0.30;0.30;;;11.00;99.90;;;;;;4991707;28;20923;-68
2024/02/12 14:42:36;;;;;;;0.30;0.30;;;10.90;99.90;;;;;;4974631;28;20418;-66
2024/02/12 14:45:05;;;;;;;0.30;0.30;;;10.90;99.90;;;;;;4973420;28;20419;-66
2024/02/12 14:47:35;;;;;;;0.30;0.20;;;10.90;99.90;;;;;;4978901;28;20532;-66
2024/02/12 14:50:03;;;;;;;0.30;0.30;;;10.90;99.90;;;;;;4976506;28;20422;-67
2024/02/12 14:52:30;;;;;;;0.30;0.30;;;10.90;99.90;;;;;;4973435;28;20418;-69
2024/02/12 14:54:56;;;;;;;0.30;0.30;;;10.80;99.90;;;;;;4973394;28;20413;-67
2024/02/12 14:57:23;;;;;;;0.30;0.30;;;10.80;99.90;;;;;;4972808;28;20469;-68
2024/02/12 14:59:49;;;;;;;0.30;0.30;;;10.80;99.90;;;;;;4973524;28;20217;-69
2024/02/12 15:02:15;;;;;;;0.30;0.30;;;10.80;99.90;;;;;;4974218;28;20411;-66
2024/02/12 15:04:44;;;;;;;0.30;0.30;;;10.70;99.90;;;;;;4976111;28;20450;-67
2024/02/12 15:07:12;;;;;;;0.30;0.30;;;10.70;99.90;;;;;;4977814;28;20449;-67
2024/02/12 15:09:44;;;;;;;0.30;0.30;;;10.50;99.90;;;;;;4984867;28;20417;-67
2024/02/12 15:12:23;;;;;;;0.30;0.30;;;10.50;99.90;;;;;;4980042;28;20418;-65
2024/02/12 15:14:50;;;;;;;0.30;0.30;;;10.50;99.90;;;;;;4978655;28;20453;-67
2024/02/12 15:17:16;;;;;;;0.30;0.30;;;10.50;99.90;;;;;;4982492;28;20438;-71
2024/02/12 15:19:46;;;;;;;0.30;0.20;;;10.40;99.90;;;;;;4988370;28;20479;-68
2024/02/12 15:22:12;;;;;;;0.30;0.30;;;10.40;99.90;;;;;;4991740;28;20429;-70
2024/02/12 15:24:38;;;;;;;0.30;0.30;;;10.30;99.90;;;;;;4977238;28;20430;-70
2024/02/12 15:27:05;;;;;;;0.30;0.30;;;10.30;99.90;;;;;;4970108;28;20773;-69
2024/02/12 15:29:31;;;;;;;0.30;0.30;;;10.30;99.90;;;;;;4971984;28;20952;-69
2024/02/12 15:31:56;;;;;;;0.30;0.30;;;10.20;99.90;;;;;;4971272;28;20495;-66
2024/02/12 15:34:22;;;;;;;0.30;0.30;;;10.20;99.90;;;;;;4967073;28;20181;-67
2024/02/12 15:36:48;;;;;;;0.33;0.33;;;10.10;99.90;;;;;;4966888;28;20291;-67
2024/02/12 15:39:13;;;;;;;0.30;0.30;;;10.20;99.90;;;;;;4968745;28;20933;-66
2024/02/12 15:41:40;;;;;;;0.30;0.20;;;10.10;99.90;;;;;;4966123;28;20180;-66
2024/02/12 15:44:06;;;;;;;0.30;0.30;;;10.10;99.90;;;;;;4954429;28;20224;-66
2024/02/12 15:46:34;;;;;;;0.30;0.30;;;10.10;99.90;;;;;;4975014;28;20479;-67
2024/02/12 15:48:59;;;;;;;1.07;0.60;;;10.00;99.90;;;;;;4969037;28;20934;-64
2024/02/12 15:51:27;;;;;;;0.30;0.30;;;10.00;99.90;;;;;;4969601;28;20429;-65
2024/02/12 15:53:53;;;;;;;0.30;0.30;;;10.00;99.90;;;;;;4970456;28;20653;-66
2024/02/12 15:56:19;;;;;;;0.30;0.30;;;10.00;99.90;;;;;;4970342;28;20483;-67
2024/02/12 15:58:46;;;;;;;0.30;0.30;;;10.00;99.90;;;;;;4952193;28;20342;-66
2024/02/12 16:01:11;;;;;;;0.30;0.30;;;9.90;99.90;;;;;;4979345;28;20877;-66
2024/02/12 16:03:37;;;;;;;0.30;0.30;;;9.90;99.90;;;;;;4969090;28;20425;-68
2024/02/12 16:06:10;;;;;;;0.30;0.30;;;9.90;99.90;;;;;;4960866;28;20205;-64
2024/02/12 16:08:36;;;;;;;0.30;0.30;;;9.80;99.90;;;;;;4984911;28;20499;-66
2024/02/12 16:11:09;;;;;;;0.30;0.30;;;9.80;99.90;;;;;;4975728;28;20516;-67
2024/02/12 16:13:35;;;;;;;0.30;0.30;;;9.80;99.90;;;;;;4975846;28;20177;-67
2024/02/12 16:16:03;;;;;;;0.30;0.30;;;9.70;99.90;;;;;;4975902;28;20210;-65
2024/02/12 16:18:29;;;;;;;0.30;0.30;;;9.70;99.90;;;;;;4976968;28;20205;-64
2024/02/12 16:20:58;;;;;;;0.30;0.30;;;9.70;99.90;;;;;;4959356;28;20192;-66
2024/02/12 16:23:25;;;;;;;0.30;0.30;;;9.60;99.90;;;;;;4976858;28;20249;-64
2024/02/12 16:25:53;;;;;;;0.30;0.30;;;9.50;99.90;;;;;;4976257;28;20229;-66
2024/02/12 16:28:19;;;;;;;0.38;0.38;;;9.40;99.90;;;;;;4976816;28;20185;-65
2024/02/12 16:30:45;;;;;;;0.30;0.30;;;9.40;99.90;;;;;;4976122;28;20697;-66
2024/02/12 16:33:11;;;;;;;0.30;0.30;;;9.30;99.90;;;;;;4976986;28;20267;-65
2024/02/12 16:35:37;;;;;;;0.30;0.30;;;9.30;99.90;;;;;;4976398;28;20200;-67
2024/02/12 16:38:04;;;;;;;0.30;0.30;;;9.20;99.90;;;;;;4977114;28;20208;-65
2024/02/12 16:40:29;;;;;;;0.30;0.30;;;9.10;99.90;;;;;;4976810;28;20197;-67
2024/02/12 16:42:56;;;;;;;0.30;0.30;;;9.10;99.90;;;;;;4976941;28;20172;-68
2024/02/12 16:45:21;;;;;;;0.57;0.57;;;9.00;99.90;;;;;;4981017;28;20930;-65
2024/02/12 16:47:47;;;;;;;0.30;0.30;;;9.00;99.90;;;;;;4959476;28;20195;-67
2024/02/12 16:50:13;;;;;;;0.30;0.20;;;9.00;99.90;;;;;;4976693;28;20208;-67
2024/02/12 16:52:40;;;;;;;0.30;0.30;;;8.90;99.90;;;;;;4976455;28;20183;-69
2024/02/12 16:55:06;;;;;;;0.30;0.30;;;8.90;99.90;;;;;;4981470;28;20177;-67
2024/02/12 16:57:33;;;;;;;0.30;0.30;;;8.80;99.90;;;;;;4987600;28;20169;-69
2024/02/12 16:59:59;;;;;;;0.30;0.30;;;8.70;99.90;;;;;;4982545;28;20797;-66
2024/02/12 17:02:27;;;;;;;0.30;0.30;;;8.70;99.90;;;;;;4981429;28;20182;-64
2024/02/12 17:04:54;;;;;;;0.30;0.30;;;8.60;99.90;;;;;;4975970;28;20172;-66
2024/02/12 17:07:21;;;;;;;0.30;0.30;;;8.60;99.90;;;;;;4959139;28;20215;-64
2024/02/12 17:09:47;;;;;;;0.30;0.30;;;8.60;99.90;;;;;;4976827;28;20221;-69
2024/02/12 17:12:13;;;;;;;0.30;0.30;;;8.50;99.90;;;;;;4977546;28;20176;-67
2024/02/12 17:14:42;;;;;;;0.52;0.50;;;8.50;99.90;;;;;;4982318;28;20215;-67
2024/02/12 17:17:10;;;;;;;0.30;0.30;;;8.50;99.90;;;;;;4990360;28;20223;-67
2024/02/12 17:19:36;;;;;;;0.30;0.30;;;8.40;99.90;;;;;;4978924;28;20233;-65
2024/02/12 17:22:04;;;;;;;0.30;0.30;;;8.30;99.90;;;;;;4996400;28;20637;-64
2024/02/12 17:24:31;;;;;;;0.30;0.30;;;8.30;99.90;;;;;;4978574;28;20172;-64
2024/02/12 17:26:57;;;;;;;0.30;0.30;;;8.20;99.90;;;;;;4975511;28;20216;-68
2024/02/12 17:29:27;;;;;;;0.30;0.30;;;8.20;99.90;;;;;;4975975;28;20538;-65
2024/02/12 17:31:52;;;;;;;0.40;0.40;;;8.20;99.90;;;;;;4975646;28;20183;-68
2024/02/12 17:34:18;;;;;;;0.40;0.40;;;8.20;99.90;;;;;;4976532;28;20535;-66
2024/02/12 17:36:44;;;;;;;0.40;0.40;;;8.20;99.90;;;;;;4980468;28;20447;-65
2024/02/12 17:39:13;;;;;;;0.30;0.30;;;8.10;99.90;;;;;;4975128;28;20196;-64
2024/02/12 17:41:42;;;;;;;0.30;0.30;;;8.10;99.90;;;;;;4975416;28;20723;-64
2024/02/12 17:44:08;;;;;;;0.40;0.40;;;8.00;99.90;;;;;;4975370;28;20219;-69
2024/02/12 17:46:33;;;;;;;0.30;0.30;;;8.00;99.90;;;;;;4969057;28;20203;-65
2024/02/12 17:48:59;;;;;;;0.30;0.30;;;8.00;99.90;;;;;;4959689;28;20192;-67
2024/02/12 17:51:24;;;;;;;0.30;0.30;;;8.00;99.90;;;;;;4975606;28;20169;-65
2024/02/12 17:53:50;;;;;;;0.30;0.30;;;8.00;99.90;;;;;;4975588;28;20176;-65
2024/02/12 17:56:16;;;;;;;0.30;0.30;;;8.00;99.90;;;;;;4957507;28;20199;-66
2024/02/12 17:58:42;;;;;;;0.30;0.30;;;8.00;99.90;;;;;;4976434;28;20559;-65
2024/02/12 18:01:08;;;;;;;0.40;0.40;;;8.00;99.90;;;;;;4983825;28;20220;-65